Airfield :







YOU CAN JOIN US ON...

 
LOGIN :

Register | Disclaimer

   EN    FR    IT 

 









Legend :    VFR   Marginal VFR   IFR   Intensive IFR   Very Intensive IFR
Visi :
Ceiling :
>= 8 km
>= 3000ft
5 to 8 km
1000 to 3000 ft
1500m to 5 km
500 to 1000 ft
800 to 1500m
200 to 500 ft
< 800m
< 200 ft
Symbols :   Thunderstorms  Fog  Heavy snow  Heavy precipitations  Wind > 20 kt







- Airport Elevation : 108 ft
- IATA code : YAY


CYAY - St Anthony

CURRENT METAR :
  • 251300Z AUTO 23016G22KT 9SM OVC140 17/10 A3018 RMK SLP223

EXPIRED METARs :
  • 251200Z AUTO 23015G21KT 9SM FEW150 15/12 A3018 RMK SLP223
  • 251100Z AUTO 23016KT 9SM CLR 14/11 A3018 RMK SLP223

TAF TAF CYAY
Valid from the 25 at 14:00 until the 26 at 02:00 UTC


251339Z 2514/2602 24012G22KT P6SM BKN150
FM251600 24012G22KT P6SM SCT150 RMK FCST BASED ON AUTO OBS. NXT FCST BY 252000Z
No reported NOTAMs for that airfield.



MET'MAP, your aeronautical weather chart ! - Copyright ORBIFLY December 2007 - Disclaimer

ORBIFLY MET'MAP TEAM :

Programming & Development : Alexandra Zaïnal
Concept & Development : Baudouin d'Aumeries
Co-Development & Prog : Marc-Olivier Méhu
Technical & hardware support : Manuel Goepfert

Contact : metmap@orbifly.com




SOURCES & CREDITS :

   NOAA